Time;durP1;ratioP1;P1;durP2;ratioP2;P2;SDS_P1;SDS_P2;PMS_P1;PMS_P2;Temp;Humidity;BMP_temperature;BMP_pressure;BME280_temperature;BME280_humidity;BME280_pressure;Samples;Min_cycle;Max_cycle;Signal;HPM_P1;HPM_P2
2022/09/24 00:01:37;;;;;;;7.30;5.95;;;;;;;-145.49;100.00;62790.56;4975447;28;20030;-74
2022/09/24 00:04:08;;;;;;;12.70;5.97;;;;;;;-145.49;100.00;62790.56;4974147;28;20046;-74
2022/09/24 00:06:41;;;;;;;5.82;5.22;;;;;;;-145.49;100.00;62790.56;4974272;28;20034;-74
2022/09/24 00:09:11;;;;;;;6.38;5.78;;;;;;;-145.49;100.00;62790.56;4967867;28;20030;-74
2022/09/24 00:11:37;;;;;;;9.52;6.10;;;;;;;-145.49;100.00;62790.56;4970657;28;20027;-74
2022/09/24 00:14:05;;;;;;;13.77;6.10;;;;;;;-145.49;100.00;62790.56;4959142;28;20637;-74
2022/09/24 00:16:34;;;;;;;7.80;6.57;;;;;;;-145.49;100.00;62790.56;4974444;28;20035;-74
2022/09/24 00:19:04;;;;;;;12.05;6.40;;;;;;;-145.49;100.00;62790.56;4940292;28;20043;-74
2022/09/24 00:21:33;;;;;;;6.85;6.15;;;;;;;-145.49;100.00;62790.56;4985468;28;20034;-74
2022/09/24 00:24:08;;;;;;;8.43;5.85;;;;;;;-145.49;100.00;62790.56;4987950;28;20520;-74
2022/09/24 00:26:50;;;;;;;6.88;5.55;;;;;;;-145.49;100.00;62790.56;4973368;28;20523;-74
2022/09/24 00:29:21;;;;;;;7.32;5.90;;;;;;;-145.49;100.00;62790.56;4972513;28;20420;-74
2022/09/24 00:31:50;;;;;;;7.43;5.38;;;;;;;-145.49;100.00;62790.56;4970855;28;20043;-74
2022/09/24 00:34:16;;;;;;;11.63;6.43;;;;;;;-145.49;100.00;62790.56;4968190;28;20034;-74
2022/09/24 00:36:45;;;;;;;8.55;6.38;;;;;;;-145.49;100.00;62790.56;4976585;28;20054;-74
2022/09/24 00:39:14;;;;;;;7.30;6.07;;;;;;;-145.49;100.00;62790.56;4980489;28;20058;-74
2022/09/24 00:41:45;;;;;;;8.10;6.47;;;;;;;-145.49;100.00;62790.56;4972545;28;20038;-74
2022/09/24 00:44:53;;;;;;;7.63;6.68;;;;;;;-145.49;100.00;62790.56;4971942;28;20374;-74
2022/09/24 00:47:36;;;;;;;8.23;7.40;;;;;;;-145.49;100.00;62790.56;4988522;28;20034;-74
2022/09/24 00:50:12;;;;;;;8.40;7.00;;;;;;;-145.49;100.00;62790.56;4970850;28;20043;-74
2022/09/24 00:52:44;;;;;;;7.88;6.63;;;;;;;-145.49;100.00;62790.56;4970652;28;20037;-74
2022/09/24 00:55:12;;;;;;;8.25;7.43;;;;;;;-145.49;100.00;62790.56;4973492;28;20038;-73
2022/09/24 00:57:40;;;;;;;9.35;7.22;;;;;;;-145.49;100.00;62790.56;4972317;28;20034;-74
2022/09/24 01:00:07;;;;;;;8.85;6.75;;;;;;;-145.49;100.00;62790.56;4974013;28;20408;-74
2022/09/24 01:02:37;;;;;;;7.43;5.70;;;;;;;-145.49;100.00;62790.56;4987924;28;20035;-74
2022/09/24 01:05:04;;;;;;;7.63;6.82;;;;;;;-145.49;100.00;62790.56;4968232;28;20050;-74
2022/09/24 01:07:30;;;;;;;6.00;5.38;;;;;;;-145.49;100.00;62790.56;4971254;28;20035;-74
2022/09/24 01:09:56;;;;;;;8.43;7.05;;;;;;;-145.49;100.00;62790.56;4969927;28;20400;-73
2022/09/24 01:12:48;;;;;;;6.80;6.07;;;;;;;-145.49;100.00;62790.56;4969466;28;20039;-73
2022/09/24 01:15:30;;;;;;;5.95;5.45;;;;;;;-145.49;100.00;62790.56;4969443;28;20034;-73
2022/09/24 01:18:14;;;;;;;7.10;6.28;;;;;;;-145.49;100.00;62790.56;4972085;28;20046;-73
2022/09/24 01:20:40;;;;;;;7.82;6.80;;;;;;;-145.49;100.00;62790.56;4975062;28;20038;-74
2022/09/24 01:23:12;;;;;;;7.50;5.72;;;;;;;-145.49;100.00;62790.56;4972629;28;20042;-74
2022/09/24 01:25:59;;;;;;;8.82;6.85;;;;;;;-145.49;100.00;62790.56;4974098;28;20486;-74
2022/09/24 01:29:05;;;;;;;7.97;5.88;;;;;;;-145.49;100.00;62790.56;4974523;28;20039;-74
2022/09/24 01:31:45;;;;;;;8.70;7.80;;;;;;;-145.49;100.00;62790.56;4972106;28;20039;-73
2022/09/24 01:34:16;;;;;;;11.52;5.45;;;;;;;-145.49;100.00;62790.56;4969796;28;20031;-74
2022/09/24 01:36:46;;;;;;;7.72;5.50;;;;;;;-145.49;100.00;62790.56;4969825;28;20053;-74
2022/09/24 01:39:13;;;;;;;7.35;6.18;;;;;;;-145.49;100.00;62790.56;4967227;28;20050;-74
2022/09/24 01:41:41;;;;;;;6.35;5.75;;;;;;;-145.49;100.00;62790.56;4971547;28;20026;-73
2022/09/24 01:44:10;;;;;;;10.40;5.40;;;;;;;-145.49;100.00;62790.56;4982862;28;20035;-74
2022/09/24 01:46:38;;;;;;;9.93;6.40;;;;;;;-145.49;100.00;62790.56;4971719;28;20046;-74
2022/09/24 01:49:06;;;;;;;7.80;6.38;;;;;;;-145.49;100.00;62790.56;4970331;28;20035;-74
2022/09/24 01:51:42;;;;;;;5.95;5.40;;;;;;;-145.49;100.00;62790.56;4968484;28;20049;-73
2022/09/24 01:54:28;;;;;;;8.07;6.53;;;;;;;-145.49;100.00;62790.56;4962742;28;20396;-73
2022/09/24 01:57:04;;;;;;;6.13;5.45;;;;;;;-145.49;100.00;62790.56;4972864;28;20039;-73
2022/09/24 01:59:51;;;;;;;7.72;5.88;;;;;;;-145.49;100.00;62790.56;4970865;28;20030;-73
2022/09/24 02:02:29;;;;;;;8.40;6.35;;;;;;;-145.49;100.00;62790.56;4974073;28;20027;-73
2022/09/24 02:05:04;;;;;;;9.00;6.60;;;;;;;-145.49;100.00;62790.56;4970684;28;20053;-73
2022/09/24 02:07:38;;;;;;;8.25;6.22;;;;;;;-145.49;100.00;62790.56;4970133;28;20039;-74
2022/09/24 02:10:12;;;;;;;6.20;5.60;;;;;;;-145.49;100.00;62790.56;4979401;28;20034;-73
2022/09/24 02:12:42;;;;;;;8.52;6.05;;;;;;;-145.49;100.00;62790.56;4972953;28;20038;-73
2022/09/24 02:15:25;;;;;;;8.00;5.97;;;;;;;-145.49;100.00;62790.56;4980857;28;20035;-73
2022/09/24 02:17:58;;;;;;;8.63;6.20;;;;;;;-145.49;100.00;62790.56;4975941;28;20038;-73
2022/09/24 02:20:26;;;;;;;6.82;5.53;;;;;;;-145.49;100.00;62790.56;4971869;28;20031;-73
2022/09/24 02:22:56;;;;;;;6.93;5.35;;;;;;;-145.49;100.00;62790.56;4969777;28;20058;-73
2022/09/24 02:25:34;;;;;;;8.02;7.18;;;;;;;-145.49;100.00;62790.56;4971347;28;20405;-73
2022/09/24 02:28:02;;;;;;;11.10;6.75;;;;;;;-145.49;100.00;62790.56;4972523;28;20043;-73
2022/09/24 02:30:35;;;;;;;7.53;6.75;;;;;;;-145.49;100.00;62790.56;4976862;28;20030;-73
2022/09/24 02:34:19;;;;;;;7.35;6.40;;;;;;;-145.49;100.00;62790.56;4962644;28;20042;-73
2022/09/24 02:35:48;;;;;;;8.45;6.78;;;;;;;-145.49;100.00;62790.56;4970879;28;20039;-73
2022/09/24 02:38:15;;;;;;;6.57;5.97;;;;;;;-145.49;100.00;62790.56;4986418;28;20041;-73
2022/09/24 02:40:44;;;;;;;5.72;5.13;;;;;;;-145.49;100.00;62790.56;4970557;28;20041;-73
2022/09/24 02:43:10;;;;;;;7.03;5.30;;;;;;;-145.49;100.00;62790.56;4973961;28;20042;-73
2022/09/24 02:45:37;;;;;;;8.00;6.75;;;;;;;-145.49;100.00;62790.56;4973246;28;20037;-73
2022/09/24 02:48:03;;;;;;;7.32;6.20;;;;;;;-145.49;100.00;62790.56;4973535;28;20047;-73
2022/09/24 02:50:29;;;;;;;8.10;6.00;;;;;;;-145.49;100.00;62790.56;4969175;28;20035;-73
2022/09/24 02:53:01;;;;;;;8.50;7.07;;;;;;;-145.49;100.00;62790.56;4977072;28;20035;-73
2022/09/24 02:55:29;;;;;;;14.35;5.82;;;;;;;-145.49;100.00;62790.56;4967851;28;20041;-73
2022/09/24 02:57:58;;;;;;;9.48;5.88;;;;;;;-145.49;100.00;62790.56;4972514;28;20049;-73
2022/09/24 03:00:27;;;;;;;21.38;6.28;;;;;;;-145.49;100.00;62790.56;4970432;28;20411;-73
2022/09/24 03:02:56;;;;;;;10.63;6.47;;;;;;;-145.49;100.00;62790.56;4954387;28;20039;-73
2022/09/24 03:05:25;;;;;;;6.85;5.85;;;;;;;-145.49;100.00;62790.56;4968779;28;20054;-73
2022/09/24 03:07:53;;;;;;;6.22;5.63;;;;;;;-145.49;100.00;62790.56;4957016;28;20051;-74
2022/09/24 03:10:20;;;;;;;8.35;6.95;;;;;;;-145.49;100.00;62790.56;4975699;28;20027;-73
2022/09/24 03:12:50;;;;;;;8.63;6.10;;;;;;;-145.49;100.00;62790.56;4971651;28;20030;-73
2022/09/24 03:15:19;;;;;;;6.55;5.88;;;;;;;-145.49;100.00;62790.56;4972544;28;20219;-73
2022/09/24 03:17:45;;;;;;;7.78;5.90;;;;;;;-145.49;100.00;62790.56;4975582;28;20043;-73
2022/09/24 03:20:13;;;;;;;8.40;6.65;;;;;;;-145.49;100.00;62790.56;4976222;28;20042;-73
2022/09/24 03:22:42;;;;;;;11.15;6.80;;;;;;;-145.49;100.00;62790.56;4980086;28;20037;-73
2022/09/24 03:25:09;;;;;;;6.53;5.82;;;;;;;-145.49;100.00;62790.56;4973170;28;20054;-73
2022/09/24 03:27:36;;;;;;;6.60;5.50;;;;;;;-145.49;100.00;62790.56;4978520;28;20376;-73
2022/09/24 03:32:49;;;;;;;10.05;7.07;;;;;;;-145.49;100.00;62790.56;4973788;28;20035;-73
2022/09/24 03:35:18;;;;;;;6.03;5.45;;;;;;;-145.49;100.00;62790.56;4975409;28;20038;-73
2022/09/24 03:37:45;;;;;;;6.70;5.82;;;;;;;-145.49;100.00;62790.56;4969935;28;20048;-73
2022/09/24 03:40:11;;;;;;;5.47;4.97;;;;;;;-145.49;100.00;62790.56;4952481;28;20043;-73
2022/09/24 03:42:39;;;;;;;6.72;5.28;;;;;;;-145.49;100.00;62790.56;4971349;28;20037;-73
2022/09/24 03:45:06;;;;;;;8.73;7.40;;;;;;;-145.49;100.00;62790.56;4974274;28;20042;-73
2022/09/24 03:47:33;;;;;;;5.93;5.35;;;;;;;-145.49;100.00;62790.56;4970957;28;20507;-73
2022/09/24 03:50:04;;;;;;;6.35;5.45;;;;;;;-145.49;100.00;62790.56;4974801;28;20034;-72
2022/09/24 03:52:32;;;;;;;7.95;6.30;;;;;;;-145.49;100.00;62790.56;4948752;28;20046;-73
2022/09/24 03:54:59;;;;;;;7.43;5.47;;;;;;;-145.49;100.00;62790.56;4987327;28;20484;-73
2022/09/24 03:57:27;;;;;;;5.88;5.38;;;;;;;-145.49;100.00;62790.56;4972401;28;20046;-73
2022/09/24 03:59:54;;;;;;;7.93;5.13;;;;;;;-145.49;100.00;62790.56;4973520;28;20053;-73
2022/09/24 04:02:22;;;;;;;6.72;6.13;;;;;;;-145.49;100.00;62790.56;4979400;28;20038;-73
2022/09/24 04:04:49;;;;;;;6.47;5.72;;;;;;;-145.49;100.00;62790.56;4967349;28;20554;-73
2022/09/24 04:07:20;;;;;;;7.22;5.75;;;;;;;-145.49;100.00;62790.56;4976143;28;20049;-73
2022/09/24 04:09:47;;;;;;;8.00;5.28;;;;;;;-145.49;100.00;62790.56;4970630;28;20035;-73
2022/09/24 04:12:13;;;;;;;9.20;7.20;;;;;;;-145.49;100.00;62790.56;4978596;28;20050;-73
2022/09/24 04:14:40;;;;;;;9.70;5.78;;;;;;;-145.49;100.00;62790.56;4975942;28;20153;-73
2022/09/24 04:17:06;;;;;;;7.55;6.47;;;;;;;-145.49;100.00;62790.56;4973513;28;20053;-73
2022/09/24 04:19:34;;;;;;;9.90;6.38;;;;;;;-145.49;100.00;62790.56;4976296;28;20034;-73
2022/09/24 04:22:00;;;;;;;5.93;5.30;;;;;;;-145.49;100.00;62790.56;4968845;28;20026;-73
2022/09/24 04:24:29;;;;;;;7.32;6.00;;;;;;;-145.49;100.00;62790.56;4980511;28;20031;-73
2022/09/24 04:26:57;;;;;;;13.10;7.68;;;;;;;-145.49;100.00;62790.56;4972541;28;20042;-73
2022/09/24 04:29:26;;;;;;;9.07;6.18;;;;;;;-145.49;100.00;62790.56;4971070;28;20051;-73
2022/09/24 04:31:55;;;;;;;8.13;7.18;;;;;;;-145.49;100.00;62790.56;4975682;28;20050;-73
2022/09/24 04:34:21;;;;;;;7.75;5.85;;;;;;;-145.49;100.00;62790.56;4978683;28;20092;-73
2022/09/24 04:36:47;;;;;;;6.43;4.90;;;;;;;-145.49;100.00;62790.56;4974264;28;20051;-74
2022/09/24 04:39:14;;;;;;;9.40;6.60;;;;;;;-145.49;100.00;62790.56;4970344;28;20061;-74
2022/09/24 04:41:46;;;;;;;8.88;6.68;;;;;;;-145.49;100.00;62790.56;4971135;28;20049;-74
2022/09/24 04:44:14;;;;;;;10.45;6.43;;;;;;;-145.49;100.00;62790.56;4989072;28;20030;-74
2022/09/24 04:46:40;;;;;;;10.18;8.60;;;;;;;-145.49;100.00;62790.56;4972207;28;20042;-74
2022/09/24 04:49:08;;;;;;;7.93;7.13;;;;;;;-145.49;100.00;62790.56;4970137;28;20477;-74
2022/09/24 04:51:36;;;;;;;6.80;5.97;;;;;;;-145.49;100.00;62790.56;4972965;28;20437;-74
2022/09/24 04:54:03;;;;;;;6.68;5.97;;;;;;;-145.49;100.00;62790.56;4970261;28;20433;-74
2022/09/24 04:56:32;;;;;;;6.70;5.95;;;;;;;-145.49;100.00;62790.56;4968863;28;20047;-74
2022/09/24 04:59:03;;;;;;;11.50;6.32;;;;;;;-145.49;100.00;62790.56;4969764;28;20046;-74
2022/09/24 05:01:32;;;;;;;13.40;6.18;;;;;;;-145.49;100.00;62790.56;4984209;28;20603;-74
2022/09/24 05:03:58;;;;;;;7.95;6.72;;;;;;;-145.49;100.00;62790.56;4967670;23;20042;-80
2022/09/24 05:06:26;;;;;;;7.55;6.53;;;;;;;-145.49;100.00;62790.56;4971500;28;20039;-80
2022/09/24 05:08:58;;;;;;;6.05;5.45;;;;;;;-145.49;100.00;62790.56;4967066;28;20493;-79
2022/09/24 05:11:33;;;;;;;7.10;6.05;;;;;;;-145.49;100.00;62790.56;4969396;28;20053;-81
2022/09/24 05:13:59;;;;;;;7.75;6.40;;;;;;;-145.49;100.00;62790.56;4988813;28;20034;-81
2022/09/24 05:16:30;;;;;;;7.38;6.63;;;;;;;-145.49;100.00;62790.56;4973489;28;20046;-79
2022/09/24 05:19:03;;;;;;;12.50;7.63;;;;;;;-145.49;100.00;62790.56;4971451;28;20042;-81
2022/09/24 05:21:32;;;;;;;8.77;6.65;;;;;;;-145.49;100.00;62790.56;4976779;28;20034;-81
2022/09/24 05:23:58;;;;;;;9.15;7.22;;;;;;;-145.49;100.00;62790.56;4971929;28;20035;-81
2022/09/24 05:29:09;;;;;;;10.95;9.85;;;;;;;-145.49;100.00;62790.56;4972983;28;20254;-82
2022/09/24 05:31:42;;;;;;;13.45;8.80;;;;;;;-145.49;100.00;62790.56;4986262;28;20034;-82
2022/09/24 05:34:13;;;;;;;6.55;5.95;;;;;;;-145.49;100.00;62790.56;4969631;28;20045;-80
2022/09/24 05:36:42;;;;;;;8.38;7.57;;;;;;;-145.49;100.00;62790.56;4984534;28;20400;-82
2022/09/24 05:39:10;;;;;;;7.80;6.35;;;;;;;-145.49;100.00;62790.56;4965801;28;20039;-82
2022/09/24 05:41:39;;;;;;;7.78;6.63;;;;;;;-145.49;100.00;62790.56;4984274;28;20408;-82
2022/09/24 05:44:10;;;;;;;10.13;7.18;;;;;;;-145.49;100.00;62790.56;4973051;28;20046;-82
2022/09/24 05:46:43;;;;;;;7.85;7.05;;;;;;;-145.49;100.00;62790.56;4969498;28;20042;-82
2022/09/24 05:49:14;;;;;;;7.90;7.20;;;;;;;-145.49;100.00;62790.56;4969848;28;20484;-82
2022/09/24 05:51:47;;;;;;;8.32;7.30;;;;;;;-145.49;100.00;62790.56;4969647;28;20047;-82
2022/09/24 05:54:16;;;;;;;6.32;5.72;;;;;;;-145.49;100.00;62790.56;4971944;28;20407;-82
2022/09/24 05:56:47;;;;;;;9.05;7.82;;;;;;;-145.49;100.00;62790.56;4969649;28;20030;-83
2022/09/24 05:59:15;;;;;;;12.00;8.68;;;;;;;-145.49;100.00;62790.56;4971175;28;20053;-82
2022/09/24 06:01:41;;;;;;;8.40;7.38;;;;;;;-145.49;100.00;62790.56;4978464;28;20046;-82
2022/09/24 06:04:13;;;;;;;8.52;5.85;;;;;;;-145.49;100.00;62790.56;4970764;28;20035;-82
2022/09/24 06:06:42;;;;;;;6.95;6.25;;;;;;;-145.49;100.00;62790.56;4968634;28;20408;-82
2022/09/24 06:09:08;;;;;;;8.27;7.38;;;;;;;-145.49;100.00;62790.56;4969583;28;20031;-82
2022/09/24 06:11:37;;;;;;;8.77;7.28;;;;;;;-145.49;100.00;62790.56;4982537;28;20042;-82
2022/09/24 06:14:04;;;;;;;9.98;8.45;;;;;;;-145.49;100.00;62790.56;4966937;28;20034;-82
2022/09/24 06:16:33;;;;;;;6.88;6.18;;;;;;;-145.49;100.00;62790.56;4961774;28;20050;-82
2022/09/24 06:18:59;;;;;;;9.38;6.07;;;;;;;-145.49;100.00;62790.56;4970972;28;20031;-82
2022/09/24 06:21:27;;;;;;;8.02;6.65;;;;;;;-145.49;100.00;62790.56;4971979;28;20504;-82
2022/09/24 06:23:56;;;;;;;7.38;6.70;;;;;;;-145.49;100.00;62790.56;4967043;28;21581;-82
2022/09/24 06:26:27;;;;;;;9.60;7.22;;;;;;;-145.49;100.00;62790.56;4952106;28;20062;-82
2022/09/24 06:28:56;;;;;;;8.73;7.60;;;;;;;-145.49;100.00;62790.56;4983270;28;20046;-82
2022/09/24 06:31:22;;;;;;;10.55;8.32;;;;;;;-145.49;100.00;62790.56;4970893;28;20034;-82
2022/09/24 06:33:51;;;;;;;8.82;7.93;;;;;;;-145.49;100.00;62790.56;4967620;28;20395;-82
2022/09/24 06:36:19;;;;;;;8.35;7.50;;;;;;;-145.49;100.00;62790.56;4970774;28;20038;-82
2022/09/24 06:38:53;;;;;;;11.35;7.53;;;;;;;-145.49;100.00;62790.56;4969130;28;20042;-82
2022/09/24 06:41:23;;;;;;;11.70;8.52;;;;;;;-145.49;100.00;62790.56;4970505;28;20493;-82
2022/09/24 06:43:55;;;;;;;8.35;7.22;;;;;;;-145.49;100.00;62790.56;4967269;28;20062;-82
2022/09/24 06:46:25;;;;;;;8.88;6.72;;;;;;;-145.49;100.00;62790.56;4966892;28;20045;-83
2022/09/24 06:48:54;;;;;;;12.98;6.95;;;;;;;-145.49;100.00;62790.56;4966367;28;20047;-83
2022/09/24 06:51:21;;;;;;;9.15;6.55;;;;;;;-145.49;100.00;62790.56;4968608;28;20034;-83
2022/09/24 06:53:51;;;;;;;8.57;7.72;;;;;;;-145.49;100.00;62790.56;4986426;28;20496;-83
2022/09/24 06:56:19;;;;;;;8.15;7.40;;;;;;;-145.49;100.00;62790.56;4972715;28;20054;-82
2022/09/24 06:58:50;;;;;;;14.57;8.07;;;;;;;-145.49;100.00;62790.56;4984614;28;20031;-82
2022/09/24 07:01:17;;;;;;;9.18;8.27;;;;;;;-145.49;100.00;62790.56;4966871;28;20504;-83
2022/09/24 07:03:50;;;;;;;9.90;7.40;;;;;;;-145.49;100.00;62790.56;4966016;28;20401;-82
2022/09/24 07:06:16;;;;;;;8.43;7.00;;;;;;;-145.49;100.00;62790.56;4972430;28;20062;-83
2022/09/24 07:08:48;;;;;;;9.77;6.95;;;;;;;-145.49;100.00;62790.56;4972058;28;20039;-83
2022/09/24 07:11:19;;;;;;;7.15;6.45;;;;;;;-145.49;100.00;62790.56;4986140;28;20473;-83
2022/09/24 07:13:48;;;;;;;7.47;6.82;;;;;;;-145.49;100.00;62790.56;4973648;28;20045;-82
2022/09/24 07:16:21;;;;;;;7.43;6.53;;;;;;;-145.49;100.00;62790.56;4970767;28;20412;-83
2022/09/24 07:18:47;;;;;;;7.25;6.40;;;;;;;-145.49;100.00;62790.56;4966711;28;20038;-83
2022/09/24 07:21:13;;;;;;;7.35;6.45;;;;;;;-145.49;100.00;62790.56;4972511;28;20034;-83
2022/09/24 07:23:39;;;;;;;9.95;6.00;;;;;;;-145.49;100.00;62790.56;4995521;28;20035;-81
2022/09/24 07:26:08;;;;;;;7.78;7.10;;;;;;;-145.49;100.00;62790.56;4975353;28;20039;-85
2022/09/24 07:28:34;;;;;;;13.15;7.25;;;;;;;-145.49;100.00;62790.56;4979915;28;20030;-85
2022/09/24 07:31:00;;;;;;;7.50;6.25;;;;;;;-145.49;100.00;62790.56;4969872;28;20039;-85
2022/09/24 07:33:30;;;;;;;6.40;5.63;;;;;;;-145.49;100.00;62790.56;4971078;28;20405;-84
2022/09/24 07:36:08;;;;;;;9.45;6.55;;;;;;;-145.49;100.00;62790.56;4974133;28;20046;-85
2022/09/24 07:38:37;;;;;;;6.35;5.70;;;;;;;-145.49;100.00;62790.56;4976038;28;20034;-86
2022/09/24 07:41:07;;;;;;;8.30;6.90;;;;;;;-145.49;100.00;62790.56;4974528;28;20035;-87
2022/09/24 07:43:35;;;;;;;7.68;5.60;;;;;;;-145.49;100.00;62790.56;4983823;28;20038;-87
2022/09/24 07:46:07;;;;;;;7.45;6.18;;;;;;;-145.49;100.00;62790.56;4973049;28;20370;-87
2022/09/24 07:48:33;;;;;;;8.25;6.63;;;;;;;-145.49;100.00;62790.56;4990134;28;20032;-89
2022/09/24 07:51:02;;;;;;;14.00;6.95;;;;;;;-145.49;100.00;62790.56;4970583;28;20042;-87
2022/09/24 07:53:28;;;;;;;7.22;6.55;;;;;;;-145.49;100.00;62790.56;4976507;23;20046;-90
2022/09/24 07:56:01;;;;;;;;;;;;;;;-145.49;100.00;62790.56;4956089;28;20533;-89
2022/09/24 07:58:32;;;;;;;11.88;7.65;;;;;;;-145.49;100.00;62790.56;4973673;28;19918;-90
2022/09/24 08:01:02;;;;;;;8.23;7.43;;;;;;;-145.49;100.00;62790.56;4984988;28;20046;-89
2022/09/24 08:03:28;;;;;;;8.77;7.05;;;;;;;-145.49;100.00;62790.56;4954727;28;20035;-88
2022/09/24 08:05:57;;;;;;;7.75;6.97;;;;;;;-145.49;100.00;62790.56;4947985;28;20526;-89
2022/09/24 08:08:25;;;;;;;9.23;7.40;;;;;;;-145.49;100.00;62790.56;4949066;28;20043;-88
2022/09/24 08:10:54;;;;;;;10.15;7.38;;;;;;;-145.49;100.00;62790.56;4962804;28;20082;-88
2022/09/24 08:13:22;;;;;;;8.98;6.63;;;;;;;-145.49;100.00;62790.56;4948913;28;20042;-89
2022/09/24 08:15:56;;;;;;;6.15;5.55;;;;;;;-145.49;100.00;62790.56;4969927;28;20038;-92
2022/09/24 08:18:25;;;;;;;8.10;6.78;;;;;;;-145.49;100.00;62790.56;4957780;28;20046;-89
2022/09/24 08:20:54;;;;;;;7.97;6.55;;;;;;;-145.49;100.00;62790.56;4963345;28;20046;-92
2022/09/24 08:23:20;;;;;;;5.90;5.38;;;;;;;-145.49;100.00;62790.56;4945230;29;20027;-89
2022/09/24 08:25:51;;;;;;;8.25;6.75;;;;;;;-145.49;100.00;62790.56;4966494;28;20043;-93
2022/09/24 08:28:21;;;;;;;8.07;6.13;;;;;;;-145.49;100.00;62790.56;4982125;28;20035;-91
2022/09/24 08:30:59;;;;;;;7.35;6.63;;;;;;;-145.49;100.00;62790.56;4957162;28;20409;-90
2022/09/24 08:33:31;;;;;;;7.20;5.72;;;;;;;-145.49;100.00;62790.56;4964681;28;20043;-90
2022/09/24 08:36:02;;;;;;;11.02;7.05;;;;;;;-145.49;100.00;62790.56;4943013;28;20412;-88
2022/09/24 08:38:28;;;;;;;10.63;8.50;;;;;;;-145.49;100.00;62790.56;4967785;28;20035;-88
2022/09/24 08:41:10;;;;;;;8.18;7.38;;;;;;;-145.49;100.00;62790.56;4964040;28;20043;-88
2022/09/24 08:43:51;;;;;;;10.68;9.23;;;;;;;-145.49;100.00;62790.56;4933674;28;20370;-90
2022/09/24 08:49:30;;;;;;;8.88;7.88;;;;;;;-145.49;100.00;62790.56;4972672;28;20038;-88
2022/09/24 08:52:13;;;;;;;8.60;7.80;;;;;;;-145.49;100.00;62790.56;4970919;28;20035;-91
2022/09/24 08:54:48;;;;;;;8.38;7.35;;;;;;;-145.49;100.00;62790.56;4971339;28;20500;-90
2022/09/24 08:57:17;;;;;;;10.40;8.13;;;;;;;-145.49;100.00;62790.56;4966132;28;20039;-88
2022/09/24 08:59:51;;;;;;;13.98;8.07;;;;;;;-145.49;100.00;62790.56;4954604;28;20041;-88
2022/09/24 09:02:29;;;;;;;11.38;8.10;;;;;;;-145.49;100.00;62790.56;4953373;28;20035;-89
2022/09/24 09:05:23;;;;;;;9.27;8.38;;;;;;;-145.49;100.00;62790.56;4959390;28;20050;-91
2022/09/24 09:08:12;;;;;;;13.07;9.27;;;;;;;-145.49;100.00;62790.56;4961383;28;20043;-91
2022/09/24 09:10:44;;;;;;;13.98;10.93;;;;;;;-145.49;100.00;62790.56;4937399;28;20047;-88
2022/09/24 09:13:22;;;;;;;19.60;9.45;;;;;;;-145.49;100.00;62790.56;4955926;28;20038;-89
2022/09/24 09:16:05;;;;;;;10.05;8.90;;;;;;;-145.49;100.00;62790.56;4941258;29;20055;-89
2022/09/24 09:18:37;;;;;;;11.80;9.05;;;;;;;-145.49;100.00;62790.56;4971062;28;20044;-89
2022/09/24 09:21:32;;;;;;;10.02;9.02;;;;;;;-145.49;100.00;62790.56;4968648;28;20050;-89
2022/09/24 09:24:01;;;;;;;13.27;9.27;;;;;;;-145.49;100.00;62790.56;4959831;28;20053;-89
2022/09/24 09:26:33;;;;;;;13.57;9.68;;;;;;;-145.49;100.00;62790.56;4957789;28;20046;-89
2022/09/24 09:29:00;;;;;;;9.88;8.75;;;;;;;-145.49;100.00;62790.56;4974557;28;20046;-90
2022/09/24 09:32:04;;;;;;;12.95;9.35;;;;;;;-145.49;100.00;62790.56;4972377;28;20026;-89
2022/09/24 09:34:52;;;;;;;18.15;9.18;;;;;;;-145.49;100.00;62790.56;4968644;28;20035;-89
2022/09/24 09:37:26;;;;;;;16.20;10.30;;;;;;;-145.49;100.00;62790.56;4964952;28;20090;-89
2022/09/24 09:40:31;;;;;;;11.25;9.52;;;;;;;-145.49;100.00;62790.56;4974515;28;20057;-89
2022/09/24 09:43:02;;;;;;;11.70;9.93;;;;;;;-145.49;100.00;62790.56;4933963;29;20050;-90
2022/09/24 09:45:50;;;;;;;13.80;10.07;;;;;;;-145.49;100.00;62790.56;4919508;29;20052;-89
2022/09/24 09:48:27;;;;;;;9.80;8.80;;;;;;;-145.49;100.00;62790.56;4951480;28;20066;-92
2022/09/24 09:51:05;;;;;;;10.80;9.52;;;;;;;-145.49;100.00;62790.56;4943171;28;20047;-87
2022/09/24 09:53:33;;;;;;;11.82;10.02;;;;;;;-145.49;100.00;62790.56;4966949;28;20043;-92
2022/09/24 09:56:09;;;;;;;13.13;10.30;;;;;;;-145.49;100.00;62790.56;4980206;28;20046;-89
2022/09/24 09:58:36;;;;;;;;;;;;;;;-145.49;100.00;62790.56;4949429;28;20515;-89
2022/09/24 10:01:10;;;;;;;9.93;8.93;;;;;;;-145.49;100.00;62790.56;4989316;28;19921;-91
2022/09/24 10:03:41;;;;;;;10.25;8.93;;;;;;;-145.49;100.00;62790.56;4971536;28;20026;-88
2022/09/24 10:06:07;;;;;;;11.43;10.23;;;;;;;-145.49;100.00;62790.56;4964391;28;20122;-86
2022/09/24 10:08:33;;;;;;;11.10;9.13;;;;;;;-145.49;100.00;62790.56;4983044;28;20047;-88
2022/09/24 10:11:06;;;;;;;10.68;8.93;;;;;;;-145.49;100.00;62790.56;4973280;28;20039;-91
2022/09/24 10:13:37;;;;;;;12.32;8.63;;;;;;;-145.49;100.00;62790.56;4974207;28;21144;-88
2022/09/24 10:16:08;;;;;;;10.45;8.38;;;;;;;-145.49;100.00;62790.56;4986498;28;20043;-89
2022/09/24 10:18:45;;;;;;;11.70;9.50;;;;;;;-145.49;100.00;62790.56;4985171;28;20034;-89
2022/09/24 10:21:17;;;;;;;9.38;8.18;;;;;;;-145.49;100.00;62790.56;4951309;29;20050;-89
2022/09/24 10:23:48;;;;;;;10.43;8.63;;;;;;;-145.49;100.00;62790.56;4973389;28;20493;-87
2022/09/24 10:26:17;;;;;;;7.47;6.63;;;;;;;-145.49;100.00;62790.56;4966075;28;20035;-90
2022/09/24 10:31:40;;;;;;;5.60;5.10;;;;;;;-145.49;100.00;62790.56;4974724;28;20060;-88
2022/09/24 10:34:25;;;;;;;5.20;4.70;;;;;;;-145.49;100.00;62790.56;4936030;28;20040;-90
2022/09/24 10:37:02;;;;;;;4.82;4.28;;;;;;;-145.49;100.00;62790.56;4973948;28;20035;-88
2022/09/24 10:39:29;;;;;;;6.57;4.68;;;;;;;-145.49;100.00;62790.56;4954459;28;20528;-90
2022/09/24 10:41:58;;;;;;;5.50;4.47;;;;;;;-145.49;100.00;62790.56;4981940;28;20035;-90
2022/09/24 10:44:33;;;;;;;5.07;4.57;;;;;;;-145.49;100.00;62790.56;4944830;29;20031;-88
2022/09/24 10:47:06;;;;;;;6.15;5.00;;;;;;;-145.49;100.00;62790.56;4949940;28;20039;-89
2022/09/24 10:50:00;;;;;;;6.63;4.65;;;;;;;-145.49;100.00;62790.56;4972142;28;20504;-88
2022/09/24 10:52:56;;;;;;;8.50;4.45;;;;;;;-145.49;100.00;62790.56;4973578;28;20615;-88
2022/09/24 10:55:59;;;;;;;6.68;4.47;;;;;;;-145.49;100.00;62790.56;4972086;28;20039;-92
2022/09/24 10:59:10;;;;;;;6.55;5.03;;;;;;;-145.49;100.00;62790.56;4937869;29;20519;-88
2022/09/24 11:01:58;;;;;;;4.80;4.38;;;;;;;-145.49;100.00;62790.56;4936524;29;20523;-88
2022/09/24 11:04:49;;;;;;;6.57;4.65;;;;;;;-145.49;100.00;62790.56;4970720;23;20051;-75
2022/09/24 11:07:45;;;;;;;5.90;4.10;;;;;;;-145.49;100.00;62790.56;4961675;28;20046;-75
2022/09/24 11:10:17;;;;;;;6.30;5.40;;;;;;;-145.49;100.00;62790.56;4979117;28;20407;-75
2022/09/24 11:12:53;;;;;;;5.10;4.60;;;;;;;-145.49;100.00;62790.56;4989086;23;20046;-75
2022/09/24 11:15:49;;;;;;;7.65;4.07;;;;;;;-145.49;100.00;62790.56;4965794;28;20069;-75
2022/09/24 11:18:51;;;;;;;5.38;4.15;;;;;;;-145.49;100.00;62790.56;4955032;28;20051;-77
2022/09/24 11:21:46;;;;;;;5.05;4.25;;;;;;;-145.49;100.00;62790.56;4957906;28;20066;-75
2022/09/24 11:24:15;;;;;;;5.40;3.55;;;;;;;-145.49;100.00;62790.56;4965914;28;20034;-75
2022/09/24 11:27:00;;;;;;;6.85;4.05;;;;;;;-145.49;100.00;62790.56;4970833;28;20043;-75
2022/09/24 11:30:11;;;;;;;5.18;4.60;;;;;;;-145.49;100.00;62790.56;4972619;28;20046;-75
2022/09/24 11:33:00;;;;;;;6.90;4.38;;;;;;;-145.49;100.00;62790.56;4953646;28;20058;-76
2022/09/24 11:35:34;;;;;;;4.13;3.72;;;;;;;-145.49;100.00;62790.56;4967588;28;20038;-76
2022/09/24 11:38:13;;;;;;;3.83;3.28;;;;;;;-145.49;100.00;62790.56;4972170;28;20038;-76
2022/09/24 11:40:57;;;;;;;5.15;4.43;;;;;;;-145.49;100.00;62790.56;4972153;28;20049;-75
2022/09/24 11:43:53;;;;;;;4.90;4.47;;;;;;;-145.49;100.00;62790.56;4971271;28;20031;-76